Latest Weather Observations for Cape Moreton

IDQ60801

Issued at 3:35 am EST Saturday 23 August 2014 (issued every 30 minutes, with the page automatically refreshed every 10 minutes)

About weather observations | Map of weather stations | Latest weather observations for QLD | Other Formats
Station Details ID: 040043 Name: CAPE MORETON LIGHTHOUSE Lat: -27.03 Lon: 153.47 Height: 99.9 m
Data from the previous 72 hours. | See also: Recent months at Cape Moreton
Date/Time
EST
Temp
°C
App
Temp
°C
Dew
Point
Rel
Hum
%
Delta-T
°C
Wind Press
QNH
hPa
Press
MSL
hPa
Rain
since 9 am
mm
Dir
 
Spd
km/h
Gust
km/h
Spd
kts
Gust
kts
23/03:30am 15.6 6.4 15.1 97 0.3 ESE 57 72 31 39 1019.1 1018.9 -
23/03:14am 15.7 6.8 15.2 97 0.3 SE 56 74 30 40 1019.7 1019.6 -
23/03:00am 15.9 6.1 15.4 97 0.3 SE 61 72 33 39 1019.5 1019.4 -
23/02:30am 15.5 6.9 15.0 97 0.3 SE 54 67 29 36 1020.2 1020.1 -
23/02:26am 15.2 5.1 14.6 96 0.3 SE 61 80 33 43 1019.9 1019.8 -
23/02:00am 15.4 6.3 14.8 96 0.3 SE 56 67 30 36 1020.3 1020.2 -
23/01:30am 15.7 6.2 15.1 96 0.3 SE 59 69 32 37 1020.5 1020.4 -
23/01:00am 15.0 4.8 14.2 95 0.5 SE 61 72 33 39 1021.1 1021.0 -
23/12:30am 15.8 6.1 14.8 94 0.6 ESE 59 72 32 39 1021.5 1021.4 -
23/12:00am 16.0 6.8 15.0 94 0.6 SE 57 69 31 37 1021.5 1021.4 -
 
Date/Time
EST
Temp
°C
App
Temp
°C
Dew
Point
Rel
Hum
%
Delta-T
°C
Wind Press
QNH
hPa
Press
MSL
hPa
Rain
since 9 am
mm
Dir
 
Spd
km/h
Gust
km/h
Spd
kts
Gust
kts
22/11:30pm 15.8 6.6 15.0 95 0.5 SE 57 72 31 39 1021.8 1021.7 -
22/11:10pm 16.4 9.5 15.6 95 0.5 SE 46 65 25 35 1022.0 1021.9 -
22/11:00pm 15.8 9.1 15.0 95 0.5 SE 44 52 24 28 1022.3 1022.2 -
22/10:30pm 15.6 5.9 14.6 94 0.6 SE 59 67 32 36 1021.9 1021.8 -
22/10:09pm 16.3 8.5 15.2 93 0.6 ESE 50 72 27 39 1022.1 1022.0 -
22/10:00pm 16.4 9.0 15.3 93 0.6 ESE 48 57 26 31 1022.5 1022.4 -
22/09:30pm 15.9 10.2 15.1 95 0.5 SE 39 46 21 25 1023.3 1023.1 -
22/09:00pm 15.1 7.3 14.1 94 0.6 ESE 48 56 26 30 1023.1 1022.9 -
22/08:41pm 15.7 9.0 14.7 94 0.6 ESE 43 67 23 36 1023.3 1023.1 -
22/08:30pm 15.3 11.0 14.3 94 0.6 ESE 30 37 16 20 1023.7 1023.5 -
22/08:00pm 15.1 10.7 14.0 93 0.6 ESE 30 37 16 20 1023.8 1023.6 -
22/07:49pm 15.2 9.1 14.1 93 0.6 ESE 39 44 21 24 1023.6 1023.4 -
22/07:30pm 16.0 11.9 14.9 93 0.6 SSE 30 43 16 23 1023.4 1023.2 -
22/07:18pm 15.8 10.3 14.7 93 0.6 SSE 37 52 20 28 1023.4 1023.2 -
22/07:00pm 15.9 10.7 14.4 91 0.9 SE 35 48 19 26 1023.2 1023.0 -
22/06:51pm 16.3 10.4 14.7 90 0.9 ESE 39 44 21 24 1023.2 1023.0 -
22/06:46pm 16.1 11.4 14.3 89 1.0 SSE 32 41 17 22 1023.2 1023.0 -
22/06:30pm 16.6 10.5 14.1 85 1.4 ESE 39 46 21 25 1022.7 1022.6 -
22/06:00pm 15.9 10.8 13.7 87 1.2 ESE 33 44 18 24 1022.9 1022.8 -
22/05:30pm 16.2 9.4 13.1 82 1.7 ESE 41 48 22 26 1022.7 1022.6 -
22/05:00pm 16.9 9.9 12.6 76 2.4 ESE 41 48 22 26 1022.4 1022.3 -
22/04:30pm 16.8 9.9 12.7 77 2.3 ESE 41 50 22 27 1022.0 1021.9 -
22/04:00pm 16.7 10.0 13.4 81 1.9 ESE 41 50 22 27 1021.7 1021.6 -
22/03:30pm 16.5 9.2 13.4 82 1.7 ESE 44 52 24 28 1021.6 1021.5 -
22/03:00pm 16.1 7.9 14.1 88 1.1 ESE 50 57 27 31 1021.6 1021.5 -
22/02:30pm 16.4 8.5 13.7 84 1.5 ESE 48 56 26 30 1022.0 1021.9 -
22/02:00pm 16.4 9.3 13.3 82 1.7 ESE 43 50 23 27 1022.3 1022.2 -
22/01:30pm 16.9 10.1 14.2 84 1.5 ESE 43 50 23 27 1022.6 1022.5 -
22/01:00pm 16.8 10.1 13.5 81 1.9 ESE 41 46 22 25 1023.2 1023.0 -
22/12:30pm 16.8 11.5 13.1 79 2.1 ESE 33 41 18 22 1023.5 1023.3 -
22/12:00pm 16.8 11.6 12.9 78 2.2 ESE 32 39 17 21 1024.1 1023.9 -
22/11:30am 16.6 9.2 12.6 77 2.2 ESE 43 48 23 26 1024.3 1024.1 -
22/11:00am 16.5 10.8 14.2 86 1.3 E 37 46 20 25 1024.6 1024.4 -
22/10:30am 16.5 9.7 14.3 87 1.3 E 43 54 23 29 1025.0 1024.8 -
22/10:00am 16.7 10.6 14.0 84 1.5 E 39 50 21 27 1024.9 1024.7 -
22/09:30am 17.4 10.1 12.7 74 2.6 E 43 50 23 27 1024.8 1024.6 -
22/09:00am 16.8 8.4 12.3 75 2.5 ESE 48 57 26 31 1024.8 1024.6 -
22/08:30am 16.5 8.7 13.0 80 2.0 ESE 46 59 25 32 1024.3 1024.1 -
22/08:00am 16.2 8.8 13.1 82 1.7 ESE 44 50 24 27 1024.3 1024.1 -
22/07:30am 16.2 8.3 13.7 85 1.4 ESE 48 56 26 30 1023.9 1023.7 -
22/07:00am 16.5 9.1 14.2 86 1.3 ESE 46 54 25 29 1023.6 1023.4 -
22/06:30am 16.4 8.1 13.9 85 1.4 E 50 59 27 32 1023.7 1023.5 -
22/06:00am 16.7 8.0 13.8 83 1.6 ESE 52 59 28 32 1022.8 1022.7 -
22/05:30am 17.1 7.3 13.4 79 2.1 ESE 57 65 31 35 1022.5 1022.4 -
22/05:00am 16.8 6.7 13.5 81 1.9 ESE 59 67 32 36 1021.9 1021.8 -
22/04:30am 16.5 7.4 13.8 84 1.5 ESE 54 65 29 35 1021.6 1021.5 -
22/04:00am 16.7 6.5 13.2 80 2.0 ESE 59 69 32 37 1021.4 1021.3 -
22/03:30am 17.1 7.3 12.8 76 2.4 ESE 56 67 30 36 1021.5 1021.4 -
22/03:00am 17.3 7.7 13.4 78 2.2 ESE 56 65 30 35 1021.8 1021.7 -
22/02:30am 17.1 7.0 12.4 74 2.6 ESE 57 69 31 37 1021.7 1021.6 -
22/02:00am 17.1 7.1 12.6 75 2.5 ESE 57 67 31 36 1021.7 1021.6 -
22/01:30am 17.4 7.5 12.5 73 2.7 ESE 56 69 30 37 1022.4 1022.3 -
22/01:00am 17.4 6.9 12.3 72 2.8 ESE 59 67 32 36 1021.9 1021.8 -
22/12:30am 17.5 6.4 11.5 68 3.3 ESE 61 78 33 42 1022.0 1021.9 -
22/12:29am 17.3 6.6 11.6 69 3.1 ESE 59 78 32 42 1022.1 1022.0 -
22/12:00am 17.5 6.7 12.6 73 2.7 ESE 61 74 33 40 1021.7 1021.6 -
 
Date/Time
EST
Temp
°C
App
Temp
°C
Dew
Point
Rel
Hum
%
Delta-T
°C
Wind Press
QNH
hPa
Press
MSL
hPa
Rain
since 9 am
mm
Dir
 
Spd
km/h
Gust
km/h
Spd
kts
Gust
kts
21/11:30pm 17.4 5.5 11.4 68 3.3 SE 65 76 35 41 1021.7 1021.6 -
21/11:00pm 17.4 6.8 12.1 71 2.9 SE 59 70 32 38 1022.3 1022.2 -
21/10:30pm 16.2 5.5 14.0 87 1.3 ESE 63 72 34 39 1022.7 1022.6 -
21/10:05pm 16.2 6.9 14.6 90 0.9 SE 57 80 31 43 1022.3 1022.2 -
21/10:00pm 15.8 5.9 14.0 89 1.0 SE 59 74 32 40 1022.8 1022.7 -
21/09:30pm 16.5 5.9 14.2 86 1.3 SE 63 72 34 39 1022.3 1022.2 -
21/09:07pm 16.1 6.0 14.5 90 0.9 SE 61 85 33 46 1021.9 1021.8 -
21/09:00pm 16.1 4.7 14.3 89 1.0 SE 67 83 36 45 1022.3 1022.2 -
21/08:30pm 16.1 4.2 14.5 90 0.9 SE 70 87 38 47 1021.6 1021.5 -
21/08:00pm 16.8 5.5 14.4 86 1.4 SE 67 82 36 44 1021.4 1021.3 -
21/07:30pm 16.7 5.9 14.7 88 1.2 SSE 65 78 35 42 1021.0 1020.9 -
21/07:12pm 17.1 7.9 15.1 88 1.2 SE 57 76 31 41 1021.2 1021.1 -
21/07:00pm 16.5 6.4 14.5 88 1.1 SE 61 74 33 40 1021.4 1021.3 -
21/06:30pm 17.2 8.0 15.0 87 1.3 SE 57 69 31 37 1021.1 1021.0 -
21/06:00pm 17.0 6.8 14.3 84 1.5 SSE 61 72 33 39 1020.6 1020.5 -
21/05:30pm 16.5 5.5 14.2 86 1.3 SSE 65 76 35 41 1020.6 1020.5 -
21/05:00pm 17.2 6.9 13.9 81 1.9 SSE 61 72 33 39 1020.3 1020.2 -
21/04:30pm 17.2 5.9 14.5 84 1.6 SSE 67 76 36 41 1019.9 1019.8 -
21/04:00pm 17.3 6.4 13.4 78 2.2 SSE 63 70 34 38 1019.7 1019.6 -
21/03:30pm 17.5 6.7 13.8 79 2.1 SSE 63 74 34 40 1019.5 1019.4 -
21/03:10pm 17.3 8.4 14.2 82 1.8 SSE 54 72 29 39 1019.3 1019.2 -
21/03:00pm 17.6 7.6 13.7 78 2.2 SSE 59 70 32 38 1019.6 1019.5 -
21/02:30pm 17.7 9.2 13.2 75 2.5 SSE 50 69 27 37 1020.1 1020.0 -
21/02:01pm 17.3 8.1 13.4 78 2.2 SSE 54 78 29 42 1019.7 1019.6 -
21/02:00pm 17.6 8.6 13.9 79 2.1 SSE 54 70 29 38 1019.9 1019.8 -
21/01:31pm 17.3 9.1 14.0 81 1.9 SSE 50 69 27 37 1020.4 1020.3 -
21/01:30pm 17.2 8.6 13.9 81 1.9 SSE 52 69 28 37 1020.3 1020.2 -
21/01:00pm 17.7 8.5 13.4 76 2.4 SSE 54 76 29 41 1020.2 1020.1 -
21/12:30pm 17.8 8.3 13.7 77 2.3 SSE 56 74 30 40 1020.9 1020.8 -
21/12:05pm 17.2 8.8 13.5 79 2.1 SSE 50 69 27 37 1021.4 1021.3 -
21/12:00pm 17.3 8.2 13.6 79 2.1 SSE 54 69 29 37 1021.6 1021.5 -
21/11:41am 17.4 8.9 13.3 77 2.3 SSE 50 69 27 37 1021.7 1021.6 -
21/11:30am 17.7 9.8 13.8 78 2.2 SSE 48 63 26 34 1021.8 1021.7 -
21/11:10am 17.2 9.4 13.1 77 2.3 S 46 65 25 35 1022.1 1022.0 -
21/11:00am 17.3 9.1 12.8 75 2.5 SSE 48 65 26 35 1022.2 1022.1 -
21/10:50am 17.3 9.1 13.0 76 2.4 SSE 48 67 26 36 1022.2 1022.1 -
21/10:30am 17.2 9.1 13.3 78 2.2 SSE 48 65 26 35 1022.3 1022.2 -
21/10:01am 16.9 9.2 13.4 80 2.0 SSE 46 65 25 35 1022.2 1022.1 -
21/10:00am 17.0 9.4 13.5 80 2.0 SSE 46 63 25 34 1022.3 1022.2 -
21/09:30am 16.5 8.3 12.8 79 2.1 SSE 48 70 26 38 1022.0 1021.9 -
21/09:07am 17.0 8.6 13.5 80 2.0 SSE 50 69 27 37 1022.3 1022.2 -
21/09:00am 16.7 7.4 13.2 80 2.0 SSE 54 70 29 38 1022.1 1022.0 -
21/08:37am 16.4 8.2 12.8 79 2.0 SSE 48 67 26 36 1022.1 1022.0 -
21/08:30am 16.4 7.9 13.1 81 1.8 SSE 50 65 27 35 1022.1 1022.0 -
21/08:01am 16.5 8.0 13.2 81 1.9 SSE 50 69 27 37 1021.7 1021.6 -
21/08:00am 16.4 7.5 13.1 81 1.8 SSE 52 69 28 37 1021.6 1021.5 -
21/07:52am 16.5 6.2 13.0 80 2.0 SSE 59 78 32 42 1021.4 1021.3 -
21/07:30am 16.5 5.9 13.0 80 2.0 SSE 61 76 33 41 1020.8 1020.7 -
21/07:00am 16.0 7.7 12.7 81 1.8 SSE 48 69 26 37 1020.8 1020.7 -
21/06:30am 16.0 7.7 12.6 80 1.9 SSE 48 70 26 38 1021.0 1020.9 -
21/06:04am 16.3 7.7 13.0 81 1.8 SSE 50 69 27 37 1020.6 1020.5 -
21/06:00am 16.2 7.2 12.7 80 1.9 SSE 52 69 28 37 1020.4 1020.3 -
21/05:42am 16.2 8.0 12.9 81 1.8 SSE 48 67 26 36 1020.4 1020.3 -
21/05:30am 16.3 8.1 12.8 80 1.9 SSE 48 63 26 34 1020.3 1020.2 -
21/05:15am 16.4 8.6 13.1 81 1.8 SSE 46 65 25 35 1020.3 1020.2 -
21/05:00am 16.4 7.8 12.9 80 1.9 SSE 50 65 27 35 1020.2 1020.1 -
21/04:30am 16.4 8.6 13.1 81 1.8 SSE 46 67 25 36 1020.2 1020.1 -
21/04:05am 16.5 8.8 13.4 82 1.7 SSE 46 65 25 35 1019.8 1019.7 -
21/04:00am 16.5 8.5 13.4 82 1.7 S 48 61 26 33 1020.0 1019.9 -
21/03:31am 16.5 9.5 13.6 83 1.6 S 43 63 23 34 1020.0 1019.9 -
21/03:30am 16.5 9.5 13.6 83 1.6 S 43 57 23 31 1020.1 1020.0 -
21/03:00am 16.5 9.5 13.6 83 1.6 S 43 57 23 31 1020.5 1020.4 -
21/02:30am 16.5 9.5 13.8 84 1.5 S 43 54 23 29 1020.6 1020.5 -
21/02:00am 16.5 10.0 14.0 85 1.4 S 41 54 22 29 1020.7 1020.6 -
21/01:30am 16.2 9.8 14.2 88 1.1 S 41 52 22 28 1020.8 1020.7 -
21/01:01am 16.3 9.3 13.8 85 1.4 S 43 61 23 33 1021.2 1021.1 -
21/01:00am 16.3 9.1 13.6 84 1.5 S 44 61 24 33 1021.2 1021.1 -
21/12:30am 16.8 9.8 13.7 82 1.8 SSE 43 63 23 34 1020.6 1020.5 -
21/12:09am 17.1 10.8 13.6 80 2.0 S 39 48 21 26 1021.2 1021.1 -
21/12:00am 17.5 9.7 14.0 80 2.0 SE 48 56 26 30 1020.9 1020.8 -
 
Date/Time
EST
Temp
°C
App
Temp
°C
Dew
Point
Rel
Hum
%
Delta-T
°C
Wind Press
QNH
hPa
Press
MSL
hPa
Rain
since 9 am
mm
Dir
 
Spd
km/h
Gust
km/h
Spd
kts
Gust
kts
20/11:30pm 17.4 9.6 13.1 76 2.4 SE 46 56 25 30 1021.0 1020.9 -
20/11:00pm 17.7 9.8 13.8 78 2.2 SE 48 57 26 31 1021.4 1021.3 -
20/10:30pm 17.8 9.4 13.5 76 2.4 SE 50 57 27 31 1021.2 1021.1 -
20/10:00pm 17.5 11.4 14.0 80 2.0 SE 39 54 21 29 1021.6 1021.5 -
20/09:30pm 17.9 8.7 13.4 75 2.6 SE 54 61 29 33 1021.0 1020.9 -
20/09:00pm 17.8 9.0 13.5 76 2.4 SE 52 61 28 33 1021.2 1021.1 -
20/08:30pm 18.0 9.6 13.5 75 2.6 SE 50 59 27 32 1021.3 1021.2 -
20/08:00pm 17.9 9.0 13.0 73 2.8 SE 52 61 28 33 1021.2 1021.1 -
20/07:30pm 17.9 9.4 13.2 74 2.7 SE 50 67 27 36 1020.7 1020.6 -
20/07:00pm 18.0 8.8 13.5 75 2.6 SE 54 61 29 33 1020.5 1020.4 -
20/06:30pm 17.9 9.1 13.4 75 2.6 SE 52 59 28 32 1020.1 1020.0 -
20/06:00pm 17.9 9.5 13.4 75 2.5 SE 50 61 27 33 1019.6 1019.5 -
20/05:30pm 17.8 9.7 13.1 74 2.7 SE 48 57 26 31 1019.2 1019.1 -
20/05:00pm 17.8 9.2 12.9 73 2.7 SE 50 61 27 33 1018.8 1018.6 -
20/04:30pm 18.0 8.9 12.5 70 3.1 SSE 52 61 28 33 1018.5 1018.3 -
20/04:00pm 17.9 9.2 12.4 70 3.1 SE 50 57 27 31 1018.1 1017.9 -
20/03:30pm 18.1 9.0 12.5 70 3.1 SE 52 57 28 31 1018.0 1017.8 -
20/03:00pm 18.1 8.8 11.9 67 3.4 SSE 52 59 28 32 1017.9 1017.7 -
20/02:30pm 18.3 9.8 12.1 67 3.4 SSE 48 57 26 31 1018.0 1017.8 -
20/02:00pm 18.6 11.0 12.4 67 3.5 SSE 44 54 24 29 1017.9 1017.7 -
20/01:30pm 18.7 12.3 12.0 65 3.7 SSE 37 48 20 26 1018.4 1018.2 -
20/01:00pm 18.5 11.7 10.8 61 4.2 SSE 37 50 20 27 1018.3 1018.1 -
20/12:30pm 18.7 11.7 11.3 62 4.1 SSE 39 52 21 28 1018.5 1018.3 -
20/12:00pm 18.5 11.3 10.6 60 4.3 SSE 39 46 21 25 1018.7 1018.5 -
20/11:30am 18.6 13.9 10.7 60 4.3 SSE 26 35 14 19 1019.4 1019.3 -
20/11:00am 18.2 13.7 10.1 59 4.3 S 24 33 13 18 1019.7 1019.6 -
20/10:30am 18.2 13.6 9.8 58 4.5 S 24 35 13 19 1019.8 1019.7 -
20/10:00am 18.1 13.1 9.5 57 4.5 S 26 37 14 20 1019.8 1019.7 -
20/09:30am 18.1 13.1 9.7 58 4.5 S 26 37 14 20 1020.0 1019.9 -
20/09:00am 17.7 12.2 9.3 58 4.4 S 28 37 15 20 1019.8 1019.7 -
20/08:30am 17.6 12.6 9.5 59 4.3 S 26 37 14 20 1019.8 1019.7 -
20/08:00am 16.4 12.4 9.1 62 3.8 S 20 28 11 15 1019.7 1019.6 -
20/07:30am 15.7 11.2 8.4 62 3.7 SSW 22 30 12 16 1019.5 1019.4 -
20/07:00am 15.1 10.5 8.1 63 3.5 SSW 22 32 12 17 1019.2 1019.1 -
20/06:30am 15.0 10.2 8.7 66 3.2 S 24 32 13 17 1018.8 1018.6 -
20/06:00am 14.9 9.6 8.6 66 3.2 SSW 26 32 14 17 1018.2 1018.0 -
20/05:30am 14.3 9.5 8.9 70 2.8 SSW 24 30 13 16 1017.8 1017.6 -
20/05:00am 14.1 10.1 9.1 72 2.5 SW 20 26 11 14 1017.6 1017.4 -
20/04:30am 14.2 9.8 9.0 71 2.7 SW 22 28 12 15 1017.3 1017.1 -
20/04:00am 14.2 10.2 9.2 72 2.6 SW 20 24 11 13 1017.0 1016.8 -

Other Formats:

Comma delimited format used in spreadsheet applications
http://www.bom.gov.au/fwo/IDQ60801/IDQ60801.94594.axf

JavaScript Object Notation format (JSON) in row-major order
http://www.bom.gov.au/fwo/IDQ60801/IDQ60801.94594.json